createdAt,value
2023-01-19T00:00:15.020Z,99332.23
2023-01-19T00:01:25.618Z,99336.87
2023-01-19T00:02:34.691Z,99324.44
2023-01-19T00:03:43.943Z,99322.52
2023-01-19T00:04:52.481Z,99323.36
2023-01-19T00:06:07.335Z,99318.84
2023-01-19T00:08:35.434Z,99311.72
2023-01-19T00:09:45.543Z,99319.59
2023-01-19T00:10:57.093Z,99319.72
2023-01-19T00:12:07.632Z,99313.48
2023-01-19T00:13:17.503Z,99319.72
2023-01-19T00:14:26.792Z,99325.08
2023-01-19T00:15:36.534Z,99322.52
2023-01-19T00:16:45.508Z,99326.16
2023-01-19T00:17:55.069Z,99319.08
2023-01-19T00:19:04.152Z,99318.23
2023-01-19T00:20:13.084Z,99331.63
2023-01-19T00:21:22.965Z,99342.95
2023-01-19T00:22:31.514Z,99338.78
2023-01-19T00:24:57.360Z,99341.75
2023-01-19T00:26:09.153Z,99344.27
2023-01-19T00:27:18.680Z,99346.94
2023-01-19T00:28:29.571Z,99348.55
2023-01-19T00:29:38.069Z,99353.05
2023-01-19T00:30:46.934Z,99354.66
2023-01-19T00:31:55.563Z,99348.42
2023-01-19T00:33:04.776Z,99354.66
2023-01-19T00:34:14.425Z,99355.50
2023-01-19T00:35:23.765Z,99351.86
2023-01-19T00:36:34.086Z,99351.74
2023-01-19T00:37:45.077Z,99344.91
2023-01-19T00:38:54.805Z,99330.03
2023-01-19T00:41:22.227Z,99314.23
2023-01-19T00:42:40.085Z,99322.83
2023-01-19T00:43:48.996Z,99327.95
2023-01-19T00:44:59.050Z,99317.88
2023-01-19T00:47:22.830Z,99329.28
2023-01-19T00:48:31.524Z,99341.63
2023-01-19T00:49:40.423Z,99341.63
2023-01-19T00:50:49.625Z,99338.87
2023-01-19T00:51:59.284Z,99336.19
2023-01-19T00:53:09.018Z,99343.35
2023-01-19T00:54:18.199Z,99338.11
2023-01-19T00:56:46.693Z,99324.52
2023-01-19T00:57:57.679Z,99316.23
2023-01-19T00:59:06.674Z,99324.64
2023-01-19T01:00:22.594Z,99324.20
2023-01-19T01:01:45.071Z,99334.44
2023-01-19T01:02:44.396Z,99321.91
2023-01-19T01:03:54.540Z,99326.39
2023-01-19T01:05:05.923Z,99321.67
2023-01-19T01:06:16.535Z,99322.87
2023-01-19T01:07:25.363Z,99320.44
2023-01-19T01:08:35.537Z,99321.84
2023-01-19T01:09:45.203Z,99321.23
2023-01-19T01:10:55.745Z,99335.59
2023-01-19T01:12:04.726Z,99332.92
2023-01-19T01:13:22.525Z,99341.23
2023-01-19T01:14:27.207Z,99353.08
2023-01-19T01:15:37.210Z,99370.43
2023-01-19T01:16:46.108Z,99366.55
2023-01-19T01:17:55.860Z,99368.98
2023-01-19T01:19:05.705Z,99369.47
2023-01-19T01:20:19.440Z,99370.46
2023-01-19T01:21:30.297Z,99371.55
2023-01-19T01:22:40.224Z,99376.27
2023-01-19T01:23:49.251Z,99373.31
2023-01-19T01:24:59.058Z,99373.55
2023-01-19T01:26:09.205Z,99378.07
2023-01-19T01:27:18.994Z,99371.23
2023-01-19T01:28:27.611Z,99367.80
2023-01-19T01:29:37.197Z,99366.20
2023-01-19T01:30:46.200Z,99368.39
2023-01-19T01:31:55.270Z,99366.79
2023-01-19T01:33:03.868Z,99369.59
2023-01-19T01:34:13.162Z,99374.07
2023-01-19T01:35:21.670Z,99373.34
2023-01-19T01:37:48.461Z,99364.95
2023-01-19T01:40:16.704Z,99361.55
2023-01-19T01:41:27.847Z,99366.86
2023-01-19T01:42:37.886Z,99360.73
2023-01-19T01:43:55.359Z,99373.61
2023-01-19T01:45:18.053Z,99366.77
2023-01-19T01:46:34.921Z,99375.16
2023-01-19T01:47:48.469Z,99377.19
2023-01-19T01:49:01.043Z,99384.37
2023-01-19T01:50:18.462Z,99383.53
2023-01-19T01:53:06.562Z,99382.55
2023-01-19T01:54:25.374Z,99388.91
2023-01-19T01:57:04.361Z,99379.48
2023-01-19T01:58:16.551Z,99383.89
2023-01-19T01:59:28.968Z,99382.06
2023-01-19T02:00:59.457Z,99384.85
2023-01-19T02:02:33.379Z,99383.89
2023-01-19T02:03:44.239Z,99381.86
2023-01-19T02:05:00.832Z,99368.36
2023-01-19T02:06:12.370Z,99366.30
2023-01-19T02:07:55.252Z,99358.91
2023-01-19T02:09:27.237Z,99359.44
2023-01-19T02:10:54.270Z,99357.25
2023-01-19T02:12:22.834Z,99356.70
2023-01-19T02:13:35.399Z,99366.94
2023-01-19T02:14:44.951Z,99371.10
2023-01-19T02:16:01.395Z,99371.98
2023-01-19T02:17:11.196Z,99378.94
2023-01-19T02:18:22.629Z,99377.95
2023-01-19T02:21:20.428Z,99381.44
2023-01-19T02:22:38.104Z,99385.78
2023-01-19T02:23:51.313Z,99381.98
2023-01-19T02:25:03.132Z,99377.63
2023-01-19T02:26:31.022Z,99385.66
2023-01-19T02:27:41.149Z,99380.30
2023-01-19T02:29:02.312Z,99387.47
2023-01-19T02:30:13.904Z,99387.59
2023-01-19T02:31:25.483Z,99393.17
2023-01-19T02:32:34.256Z,99395.02
2023-01-19T02:33:43.450Z,99389.77
2023-01-19T02:34:52.757Z,99405.84
2023-01-19T02:36:04.734Z,99397.89
2023-01-19T02:37:16.144Z,99412.05
2023-01-19T02:38:27.870Z,99406.16
2023-01-19T02:39:42.657Z,99410.27
2023-01-19T02:40:54.878Z,99407.82
2023-01-19T02:42:10.287Z,99402.00
2023-01-19T02:43:19.809Z,99407.36
2023-01-19T02:44:31.317Z,99406.39
2023-01-19T02:45:41.756Z,99410.80
2023-01-19T02:46:54.966Z,99408.11
2023-01-19T02:48:05.363Z,99405.32
2023-01-19T02:50:41.267Z,99398.30
2023-01-19T02:51:50.500Z,99397.40
2023-01-19T02:53:03.370Z,99394.92
2023-01-19T02:54:33.969Z,99394.08
2023-01-19T02:55:46.255Z,99387.88
2023-01-19T02:57:02.550Z,99373.61
2023-01-19T02:58:40.423Z,99369.97
2023-01-19T03:00:14.386Z,99365.45
2023-01-19T03:01:54.148Z,99361.82
2023-01-19T03:03:28.188Z,99353.55
2023-01-19T03:04:59.471Z,99348.19
2023-01-19T03:06:15.194Z,99351.74
2023-01-19T03:07:44.660Z,99368.55
2023-01-19T03:09:02.779Z,99379.25
2023-01-19T03:11:36.894Z,99390.50
2023-01-19T03:13:11.475Z,99392.48
2023-01-19T03:14:24.951Z,99395.39
2023-01-19T03:17:00.194Z,99391.75
2023-01-19T03:18:12.873Z,99390.19
2023-01-19T03:19:27.417Z,99387.83
2023-01-19T03:20:38.430Z,99380.88
2023-01-19T03:21:51.522Z,99383.05
2023-01-19T03:23:04.744Z,99394.83
2023-01-19T03:24:15.942Z,99387.88
2023-01-19T03:25:26.080Z,99377.92
2023-01-19T03:26:45.302Z,99380.48
2023-01-19T03:27:58.128Z,99388.29
2023-01-19T03:29:10.741Z,99385.38
2023-01-19T03:30:24.160Z,99397.81
2023-01-19T03:31:34.218Z,99394.26
2023-01-19T03:34:13.632Z,99395.55
2023-01-19T03:35:26.548Z,99401.79
2023-01-19T03:36:39.731Z,99407.37
2023-01-19T03:37:53.795Z,99410.24
2023-01-19T03:39:06.159Z,99410.36
2023-01-19T03:40:17.327Z,99408.13
2023-01-19T03:41:29.810Z,99403.84
2023-01-19T03:42:40.981Z,99406.75
2023-01-19T03:43:52.276Z,99405.98
2023-01-19T03:45:02.909Z,99407.82
2023-01-19T03:46:14.220Z,99417.88
2023-01-19T03:47:25.996Z,99417.14
2023-01-19T03:48:35.327Z,99418.94
2023-01-19T03:51:23.971Z,99405.87
2023-01-19T03:52:34.201Z,99418.32
2023-01-19T03:53:44.244Z,99425.28
2023-01-19T03:54:53.276Z,99426.97
2023-01-19T03:56:03.025Z,99421.62
2023-01-19T03:57:12.734Z,99415.42
2023-01-19T03:58:22.278Z,99416.27
2023-01-19T04:00:47.581Z,99420.86
2023-01-19T04:01:56.267Z,99423.56
2023-01-19T04:03:07.388Z,99433.31
2023-01-19T07:56:58.045Z,99383.99
2023-01-19T07:58:07.437Z,99385.89
2023-01-19T07:59:17.081Z,99385.45
2023-01-19T08:00:26.400Z,99388.33
2023-01-19T08:01:36.252Z,99385.05
2023-01-19T08:02:45.481Z,99393.23
2023-01-19T08:03:54.136Z,99387.05
2023-01-19T08:05:03.285Z,99372.78
2023-01-19T08:07:42.081Z,99372.00
2023-01-19T08:08:50.897Z,99379.89
2023-01-19T08:09:59.503Z,99371.36
2023-01-19T08:11:09.073Z,99377.72
2023-01-19T08:12:18.294Z,99377.92
2023-01-19T08:14:42.627Z,99376.98
2023-01-19T08:15:53.267Z,99370.13
2023-01-19T08:17:03.182Z,99367.19
2023-01-19T08:18:13.606Z,99385.16
2023-01-19T08:19:22.546Z,99375.37
2023-01-19T08:20:32.629Z,99367.17
2023-01-19T08:21:41.705Z,99382.72
2023-01-19T08:22:50.889Z,99371.92
2023-01-19T08:24:01.005Z,99391.37
2023-01-19T08:25:10.790Z,99408.02
2023-01-19T08:26:24.456Z,99403.83
2023-01-19T08:27:33.910Z,99397.25
2023-01-19T08:28:42.587Z,99400.80
2023-01-19T08:29:54.353Z,99414.30
2023-01-19T08:31:18.997Z,99402.41
2023-01-19T08:32:15.179Z,99417.47
2023-01-19T08:33:24.887Z,99414.50
2023-01-19T08:35:51.987Z,99408.02
2023-01-19T08:37:01.902Z,99419.27
2023-01-19T08:38:11.757Z,99425.73
2023-01-19T08:39:22.484Z,99418.13
2023-01-19T08:40:36.163Z,99422.79
2023-01-19T08:41:45.724Z,99427.18
2023-01-19T08:43:04.405Z,99414.33
2023-01-19T08:44:13.526Z,99403.55
2023-01-19T08:45:24.141Z,99412.23
2023-01-19T08:46:33.269Z,99411.26
2023-01-19T08:48:58.272Z,99396.47
2023-01-19T08:50:11.123Z,99383.53
2023-01-19T08:51:21.012Z,99402.02
2023-01-19T08:52:31.301Z,99402.75
2023-01-19T08:53:41.526Z,99406.41
2023-01-19T08:54:50.049Z,99412.18
2023-01-19T08:56:04.970Z,99401.23
2023-01-19T08:57:15.558Z,99395.28
2023-01-19T08:58:24.170Z,99401.39
2023-01-19T08:59:33.151Z,99399.39
2023-01-19T09:00:42.711Z,99395.56
2023-01-19T09:03:09.023Z,99391.64
2023-01-19T09:04:17.971Z,99385.84
2023-01-19T09:05:27.747Z,99386.05
2023-01-19T09:06:36.880Z,99387.45
2023-01-19T10:24:06.082Z,99279.87
2023-01-19T10:25:18.516Z,99291.67
2023-01-19T10:26:36.369Z,99289.22
2023-01-19T10:27:47.070Z,99287.58
2023-01-19T10:30:27.191Z,99282.83
2023-01-19T10:31:39.984Z,99278.13
2023-01-19T10:32:50.119Z,99279.72
2023-01-19T10:34:00.305Z,99266.41
2023-01-19T10:35:20.817Z,99269.87
2023-01-19T10:36:36.398Z,99272.67
2023-01-19T10:37:46.487Z,99266.50
2023-01-19T10:38:57.722Z,99264.59
2023-01-19T10:40:13.820Z,99264.70
2023-01-19T10:42:49.518Z,99251.97
2023-01-19T10:45:23.552Z,99255.49
2023-01-19T10:46:38.974Z,99255.69
2023-01-19T10:47:49.741Z,99261.69
2023-01-19T10:48:58.419Z,99266.47
2023-01-19T10:50:31.521Z,99264.55
2023-01-19T10:51:48.778Z,99262.45
2023-01-19T10:53:06.901Z,99252.17
2023-01-19T10:54:16.831Z,99255.34
2023-01-19T10:55:35.048Z,99239.06
2023-01-19T10:56:47.441Z,99232.52
2023-01-19T10:57:58.009Z,99235.00
2023-01-19T11:00:37.899Z,99229.13
2023-01-19T11:04:45.072Z,99227.38
2023-01-19T11:06:17.348Z,99226.97
2023-01-19T11:07:33.101Z,99228.45
2023-01-19T11:08:48.427Z,99232.61
2023-01-19T11:10:20.837Z,99232.38
2023-01-19T11:11:35.515Z,99220.83
2023-01-19T11:13:06.107Z,99231.41
2023-01-19T11:14:21.470Z,99232.14
2023-01-19T11:16:57.477Z,99214.07
2023-01-19T11:18:06.983Z,99214.67
2023-01-19T11:20:53.956Z,99210.58
2023-01-19T11:23:40.078Z,99215.94
2023-01-19T11:24:50.504Z,99219.30
2023-01-19T11:27:21.128Z,99208.42
2023-01-19T11:31:19.980Z,99203.66
2023-01-19T11:32:28.694Z,99206.31
2023-01-19T11:33:50.739Z,99198.16
2023-01-19T11:35:00.459Z,99196.35
2023-01-19T11:36:19.173Z,99192.59
2023-01-19T11:37:33.740Z,99198.91
2023-01-19T11:38:44.776Z,99195.14
2023-01-19T11:41:19.817Z,99192.13
2023-01-19T11:42:32.100Z,99185.91
2023-01-19T11:43:49.076Z,99187.59
2023-01-19T11:45:08.637Z,99176.66
2023-01-19T11:46:18.291Z,99185.30
2023-01-19T11:50:27.445Z,99173.17
2023-01-19T11:51:45.599Z,99182.88
2023-01-19T11:53:00.840Z,99184.34
2023-01-19T11:54:24.233Z,99188.50
2023-01-19T11:55:39.261Z,99174.61
2023-01-19T11:56:51.704Z,99180.84
2023-01-19T11:58:03.084Z,99187.16
2023-01-19T16:19:29.471Z,99246.89
2023-01-19T16:20:39.304Z,99256.72
2023-01-19T16:21:48.290Z,99256.17
2023-01-19T16:23:09.630Z,99258.19
2023-01-19T16:25:23.547Z,99257.67
2023-01-19T16:26:34.849Z,99261.95
2023-01-19T16:27:44.336Z,99259.70
2023-01-19T16:30:20.449Z,99246.02
2023-01-19T16:31:30.498Z,99252.25
2023-01-19T16:32:39.912Z,99255.66
2023-01-19T16:33:49.289Z,99248.63
2023-01-19T16:34:58.304Z,99252.39
2023-01-19T16:36:34.457Z,99248.13
2023-01-19T16:37:44.460Z,99253.55
2023-01-19T16:38:55.149Z,99254.63
2023-01-19T16:40:05.486Z,99257.55
2023-01-19T16:41:15.044Z,99249.73
2023-01-19T16:43:38.655Z,99244.31
2023-01-19T16:44:47.813Z,99255.44
2023-01-19T16:47:19.081Z,99250.39
2023-01-19T16:49:43.494Z,99258.67
2023-01-19T16:52:16.048Z,99245.46
2023-01-19T16:53:24.716Z,99253.30
2023-01-19T16:54:34.807Z,99253.04
2023-01-19T16:55:43.332Z,99267.92
2023-01-19T16:56:54.358Z,99261.45
2023-01-19T16:58:02.902Z,99258.50
2023-01-19T17:00:30.050Z,99249.16
2023-01-19T17:01:39.517Z,99251.05
2023-01-19T17:02:48.270Z,99248.94
2023-01-19T17:03:57.931Z,99256.87
2023-01-19T17:06:24.101Z,99247.52
2023-01-19T17:07:34.846Z,99244.88
2023-01-19T17:08:43.653Z,99247.34
2023-01-19T17:12:32.406Z,99249.70
2023-01-19T17:13:41.766Z,99255.71
2023-01-19T17:14:50.874Z,99258.27
2023-01-19T17:16:02.351Z,99253.63
2023-01-19T17:17:10.892Z,99248.97
2023-01-19T17:18:19.876Z,99247.98
2023-01-19T17:20:44.301Z,99249.64
2023-01-19T17:21:53.159Z,99247.72
2023-01-19T17:23:01.809Z,99252.13
2023-01-19T17:24:10.859Z,99236.60
2023-01-19T17:25:19.489Z,99247.22
2023-01-19T17:26:30.307Z,99247.22
2023-01-19T17:27:39.158Z,99250.61
2023-01-19T17:28:48.130Z,99252.19
2023-01-19T17:29:56.964Z,99249.38
2023-01-19T17:31:08.807Z,99249.00
2023-01-19T17:32:19.333Z,99248.13
2023-01-19T17:33:29.069Z,99249.84
2023-01-19T17:34:38.760Z,99256.66
2023-01-19T17:35:49.789Z,99253.84
2023-01-19T17:38:16.245Z,99254.64
2023-01-19T17:39:24.781Z,99257.27
2023-01-19T17:40:34.757Z,99258.11
2023-01-19T17:42:59.603Z,99252.79
2023-01-19T17:44:10.890Z,99251.89
2023-01-19T17:45:20.485Z,99252.73
2023-01-19T17:47:50.225Z,99247.00
2023-01-19T17:49:01.344Z,99248.05
2023-01-19T17:50:11.561Z,99248.19
2023-01-19T17:51:25.233Z,99256.13
2023-01-19T17:52:36.061Z,99250.64
2023-01-19T17:53:45.155Z,99261.26
2023-01-19T17:54:54.161Z,99250.75
2023-01-19T17:56:08.510Z,99251.48
2023-01-19T17:57:17.486Z,99248.66
2023-01-19T17:58:27.301Z,99242.30
2023-01-19T17:59:37.349Z,99249.39
2023-01-19T18:00:47.388Z,99244.86
2023-01-19T18:01:56.925Z,99250.09
2023-01-19T18:03:05.727Z,99257.33
2023-01-19T18:04:15.094Z,99253.77
2023-01-19T18:05:25.032Z,99249.39
2023-01-19T18:06:33.939Z,99248.52
2023-01-19T18:07:42.875Z,99253.90
2023-01-19T18:08:53.824Z,99244.99
2023-01-19T18:10:04.164Z,99246.94
2023-01-19T18:11:15.458Z,99254.30
2023-01-19T18:12:25.647Z,99256.99
2023-01-19T18:13:35.041Z,99252.59
2023-01-19T18:16:22.758Z,99244.02
2023-01-19T18:17:32.645Z,99254.81
2023-01-19T18:18:43.529Z,99257.37
2023-01-19T18:19:54.111Z,99254.81
2023-01-19T18:21:06.857Z,99253.97
2023-01-19T18:22:15.583Z,99256.80
2023-01-19T18:23:26.663Z,99254.95
2023-01-19T18:24:35.982Z,99254.24
2023-01-19T18:25:45.720Z,99251.82
2023-01-19T18:26:55.777Z,99257.30
2023-01-19T18:28:05.928Z,99253.77
2023-01-19T18:29:16.271Z,99253.17
2023-01-19T18:30:26.030Z,99257.57
2023-01-19T18:31:34.865Z,99252.93
2023-01-19T18:32:43.819Z,99253.77
2023-01-19T18:33:52.733Z,99255.62
2023-01-19T18:35:01.983Z,99244.87
2023-01-19T18:36:11.198Z,99244.00
2023-01-19T18:37:19.859Z,99245.84
2023-01-19T18:38:29.934Z,99253.06
2023-01-19T18:39:40.194Z,99244.87
2023-01-19T18:40:49.378Z,99240.47
2023-01-19T18:42:00.041Z,99245.84
2023-01-19T18:43:10.245Z,99242.31
2023-01-19T18:44:19.284Z,99246.81
2023-01-19T18:45:28.329Z,99246.81
2023-01-19T18:47:56.184Z,99241.50
2023-01-19T18:49:05.765Z,99242.55
2023-01-19T18:50:17.666Z,99240.87
2023-01-19T18:51:26.214Z,99248.06
2023-01-19T18:53:49.864Z,99242.75
2023-01-19T18:55:00.452Z,99246.48
2023-01-19T18:56:11.949Z,99244.80
2023-01-19T18:57:21.503Z,99244.06
2023-01-19T18:58:31.971Z,99252.26
2023-01-19T18:59:44.325Z,99251.55
2023-01-19T19:00:52.973Z,99247.15
2023-01-19T19:02:03.671Z,99253.50
2023-01-19T19:03:12.755Z,99251.92
2023-01-19T19:04:21.498Z,99258.27
2023-01-19T19:05:30.614Z,99253.63
2023-01-19T19:06:39.669Z,99257.16
2023-01-19T19:07:48.748Z,99252.79
2023-01-19T19:09:00.879Z,99252.66
2023-01-19T19:11:27.026Z,99252.59
2023-01-19T19:12:36.440Z,99253.50
2023-01-19T19:13:45.056Z,99259.84
2023-01-19T19:14:53.819Z,99256.19
2023-01-19T19:16:07.799Z,99266.33
2023-01-19T19:17:17.624Z,99266.33
2023-01-19T19:18:26.152Z,99258.27
2023-01-19T19:19:34.761Z,99258.53
2023-01-19T19:20:44.633Z,99268.57
2023-01-19T19:21:53.191Z,99266.02
2023-01-19T19:23:02.577Z,99267.83
2023-01-19T19:24:12.980Z,99268.09
2023-01-19T19:25:22.789Z,99260.16
2023-01-19T19:26:35.853Z,99270.07
2023-01-19T19:27:46.599Z,99264.09
2023-01-19T19:28:56.481Z,99270.30
2023-01-19T19:30:06.559Z,99259.69
2023-01-19T19:32:35.877Z,99260.77
2023-01-19T19:33:44.486Z,99267.17
2023-01-19T19:34:59.028Z,99257.39
2023-01-19T19:36:10.389Z,99264.71
2023-01-19T19:37:22.064Z,99270.09
2023-01-19T19:38:32.809Z,99276.46
2023-01-19T19:39:41.244Z,99266.95
2023-01-19T19:40:50.782Z,99274.39
2023-01-19T19:42:01.613Z,99268.05
2023-01-19T19:43:11.516Z,99271.45
2023-01-19T19:44:20.340Z,99273.55
2023-01-19T19:45:29.167Z,99270.13
2023-01-19T19:46:40.892Z,99270.25
2023-01-19T19:47:51.191Z,99266.86
2023-01-19T19:48:59.856Z,99264.27
2023-01-19T19:50:11.770Z,99262.72
2023-01-19T19:51:28.549Z,99263.69
2023-01-19T19:52:42.071Z,99259.29
2023-01-19T22:12:26.247Z,99355.60
2023-01-19T22:13:38.301Z,99363.52
2023-01-19T22:14:47.835Z,99373.66
2023-01-19T22:17:19.065Z,99363.81
2023-01-19T22:18:28.794Z,99372.61
2023-01-19T22:20:52.275Z,99370.98
2023-01-19T22:22:01.192Z,99377.10
2023-01-19T22:23:10.008Z,99379.38
2023-01-19T22:24:19.621Z,99371.39
2023-01-19T22:25:29.712Z,99370.59
2023-01-19T22:26:39.830Z,99378.80
2023-01-19T22:27:49.384Z,99371.67
2023-01-19T22:29:01.102Z,99375.59
2023-01-19T22:30:11.101Z,99386.46
2023-01-19T22:32:35.126Z,99382.62
2023-01-19T22:33:45.505Z,99390.19
2023-01-19T22:34:54.873Z,99393.34
2023-01-19T22:36:13.523Z,99390.96
2023-01-19T22:37:22.489Z,99392.43
2023-01-19T22:38:32.017Z,99392.81
2023-01-19T22:39:41.542Z,99398.81
2023-01-19T22:40:50.659Z,99397.47
2023-01-19T22:42:02.833Z,99398.94
2023-01-19T22:43:11.764Z,99399.28
2023-01-19T22:44:22.352Z,99400.03
2023-01-19T22:45:33.229Z,99395.29
2023-01-19T22:46:44.305Z,99394.07
2023-01-19T22:47:52.806Z,99400.28
2023-01-19T22:49:02.730Z,99397.34
2023-01-19T22:50:12.259Z,99391.01
2023-01-19T22:51:23.956Z,99393.31
2023-01-19T22:52:33.179Z,99384.55
2023-01-19T22:53:43.269Z,99398.69
2023-01-19T22:56:18.584Z,99396.61
2023-01-19T22:57:28.239Z,99401.38
2023-01-19T22:58:39.531Z,99399.56
2023-01-19T22:59:48.619Z,99400.65
2023-01-19T23:02:16.217Z,99396.59
2023-01-19T23:03:25.817Z,99397.83
2023-01-19T23:04:35.011Z,99397.33
2023-01-19T23:07:18.901Z,99398.08
2023-01-19T23:08:28.416Z,99396.48
2023-01-19T23:09:37.430Z,99403.45
2023-01-19T23:10:47.801Z,99406.75
2023-01-19T23:11:56.452Z,99403.92
2023-01-19T23:13:05.669Z,99399.30
2023-01-19T23:14:19.138Z,99414.31
2023-01-19T23:15:28.148Z,99410.53
2023-01-19T23:16:38.509Z,99422.98
2023-01-19T23:19:04.866Z,99409.02
2023-01-19T23:20:14.525Z,99418.45
2023-01-19T23:21:25.435Z,99408.06
2023-01-19T23:22:33.986Z,99418.30
2023-01-19T23:23:44.780Z,99417.45
2023-01-19T23:24:53.080Z,99412.22
2023-01-19T23:26:09.232Z,99411.95
2023-01-19T23:27:18.826Z,99405.61
2023-01-19T23:28:27.922Z,99401.92
2023-01-19T23:29:36.870Z,99409.76
2023-01-19T23:32:03.323Z,99402.38
2023-01-19T23:33:12.899Z,99409.62
2023-01-19T23:34:22.831Z,99412.31
2023-01-19T23:35:35.501Z,99408.66
2023-01-19T23:36:45.995Z,99407.07
2023-01-19T23:37:55.868Z,99404.38
2023-01-19T23:40:28.447Z,99406.16
2023-01-19T23:41:37.629Z,99410.59
2023-01-19T23:42:47.258Z,99416.94
2023-01-19T23:43:56.574Z,99429.54
2023-01-19T23:45:07.707Z,99425.75
2023-01-19T23:46:18.936Z,99413.16
2023-01-19T23:47:29.178Z,99423.78
2023-01-19T23:48:38.493Z,99419.15
2023-01-19T23:49:48.127Z,99425.36
2023-01-19T23:50:57.983Z,99423.65
2023-01-19T23:52:07.025Z,99424.52
2023-01-19T23:53:16.389Z,99430.03
2023-01-19T23:54:26.019Z,99435.53
2023-01-19T23:55:35.146Z,99435.27
2023-01-19T23:56:44.651Z,99436.37
2023-01-19T23:57:54.814Z,99429.41
2023-01-19T23:59:10.375Z,99439.91
